Time;durP1;ratioP1;P1;durP2;ratioP2;P2;SDS_P1;SDS_P2;PMS_P1;PMS_P2;Temp;Humidity;BMP_temperature;BMP_pressure;BME280_temperature;BME280_humidity;BME280_pressure;Samples;Min_cycle;Max_cycle;Signal;HPM_P1;HPM_P2
2023/10/23 00:01:01;;;;;;;225.23;59.30;;;;;;;;;;4974219;28;20740;-46
2023/10/23 00:03:28;;;;;;;225.97;57.87;;;;;;;;;;4973845;28;20416;-46
2023/10/23 00:05:54;;;;;;;227.88;60.38;;;;;;;;;;4973878;28;21023;-45
2023/10/23 00:08:20;;;;;;;225.33;58.27;;;;;;;;;;4974148;28;20173;-46
2023/10/23 00:10:46;;;;;;;226.23;61.40;;;;;;;;;;4973991;28;20912;-46
2023/10/23 00:13:12;;;;;;;227.47;60.97;;;;;;;;;;4973521;28;20928;-46
2023/10/23 00:15:38;;;;;;;227.25;59.80;;;;;;;;;;4973879;28;20460;-46
2023/10/23 00:18:04;;;;;;;229.33;62.67;;;;;;;;;;4973852;28;20271;-47
2023/10/23 00:20:30;;;;;;;226.97;59.47;;;;;;;;;;4973741;28;20419;-45
2023/10/23 00:22:56;;;;;;;228.43;59.13;;;;;;;;;;4973822;28;20983;-46
2023/10/23 00:25:22;;;;;;;228.30;64.47;;;;;;;;;;4973604;28;20221;-46
2023/10/23 00:27:47;;;;;;;226.70;58.03;;;;;;;;;;4973454;28;20924;-45
2023/10/23 00:30:13;;;;;;;225.27;58.27;;;;;;;;;;4973886;28;20408;-45
2023/10/23 00:32:39;;;;;;;227.53;59.90;;;;;;;;;;4973403;28;20548;-46
2023/10/23 00:35:06;;;;;;;226.93;59.10;;;;;;;;;;4973345;28;20432;-46
2023/10/23 00:37:32;;;;;;;226.48;58.70;;;;;;;;;;4973783;28;20468;-46
2023/10/23 00:39:58;;;;;;;227.82;60.55;;;;;;;;;;4973423;28;20183;-45
2023/10/23 00:42:24;;;;;;;226.03;57.87;;;;;;;;;;4973234;28;20189;-45
2023/10/23 00:44:50;;;;;;;228.17;61.37;;;;;;;;;;4973176;28;20439;-46
2023/10/23 00:47:16;;;;;;;223.93;56.87;;;;;;;;;;4973368;28;20428;-45
2023/10/23 00:49:43;;;;;;;230.73;62.63;;;;;;;;;;4973346;28;20416;-46
2023/10/23 00:52:09;;;;;;;227.77;59.38;;;;;;;;;;4973296;28;20201;-46
2023/10/23 00:54:35;;;;;;;226.17;58.80;;;;;;;;;;4972048;28;20201;-46
2023/10/23 00:57:01;;;;;;;231.60;64.45;;;;;;;;;;4973158;28;20435;-47
2023/10/23 00:59:27;;;;;;;227.70;61.85;;;;;;;;;;4973351;28;20183;-46
2023/10/23 01:01:54;;;;;;;226.95;58.42;;;;;;;;;;4972602;28;20219;-46
2023/10/23 01:04:20;;;;;;;224.57;57.10;;;;;;;;;;4972355;28;20200;-46
2023/10/23 01:06:46;;;;;;;226.85;59.85;;;;;;;;;;4972511;28;20205;-47
2023/10/23 01:09:12;;;;;;;226.63;59.53;;;;;;;;;;4972520;28;20180;-46
2023/10/23 01:11:38;;;;;;;226.97;60.10;;;;;;;;;;4972220;28;20189;-46
2023/10/23 01:14:04;;;;;;;225.53;59.20;;;;;;;;;;4972653;28;20432;-46
2023/10/23 01:16:30;;;;;;;225.57;57.80;;;;;;;;;;4972836;28;20951;-46
2023/10/23 01:18:56;;;;;;;227.33;59.80;;;;;;;;;;4972880;28;20550;-46
2023/10/23 01:21:22;;;;;;;223.63;56.53;;;;;;;;;;4973265;28;20420;-45
2023/10/23 01:23:50;;;;;;;227.57;62.42;;;;;;;;;;4972421;28;20405;-46
2023/10/23 01:26:16;;;;;;;226.93;59.28;;;;;;;;;;4972856;28;20172;-46
2023/10/23 01:28:43;;;;;;;226.83;59.10;;;;;;;;;;4972843;28;20174;-45
2023/10/23 01:31:09;;;;;;;227.70;59.85;;;;;;;;;;4972811;28;20458;-46
2023/10/23 01:33:35;;;;;;;225.07;56.40;;;;;;;;;;4972485;28;20193;-45
2023/10/23 01:36:01;;;;;;;225.77;59.50;;;;;;;;;;4972710;28;20849;-47
2023/10/23 01:38:27;;;;;;;227.47;59.70;;;;;;;;;;4972558;28;20199;-46
2023/10/23 01:40:53;;;;;;;227.60;60.50;;;;;;;;;;4972916;28;20930;-46
2023/10/23 01:43:19;;;;;;;227.80;61.87;;;;;;;;;;4972390;28;20407;-46
2023/10/23 01:45:45;;;;;;;225.87;59.17;;;;;;;;;;4972669;28;20965;-45
2023/10/23 01:48:11;;;;;;;229.07;62.63;;;;;;;;;;4972780;28;20408;-46
2023/10/23 01:50:37;;;;;;;227.07;60.27;;;;;;;;;;4972695;28;20180;-45
2023/10/23 01:53:03;;;;;;;229.93;61.67;;;;;;;;;;4972311;28;20418;-46
2023/10/23 01:55:29;;;;;;;225.30;57.75;;;;;;;;;;4972516;28;20431;-45
2023/10/23 01:57:58;;;;;;;228.93;61.37;;;;;;;;;;4972492;28;20696;-46
2023/10/23 02:00:24;;;;;;;229.60;61.08;;;;;;;;;;4972496;28;20451;-45
2023/10/23 02:02:50;;;;;;;228.90;61.15;;;;;;;;;;4972332;28;20179;-46
2023/10/23 02:05:16;;;;;;;225.80;58.13;;;;;;;;;;4974381;28;20192;-46
2023/10/23 02:07:42;;;;;;;228.48;59.67;;;;;;;;;;4976156;28;20772;-47
2023/10/23 02:10:08;;;;;;;224.50;57.10;;;;;;;;;;4976243;28;20194;-46
2023/10/23 02:12:34;;;;;;;232.85;64.82;;;;;;;;;;4976018;28;20413;-46
2023/10/23 02:15:00;;;;;;;229.83;60.43;;;;;;;;;;4975979;28;20196;-45
2023/10/23 02:17:26;;;;;;;231.25;63.55;;;;;;;;;;4975782;28;20463;-45
2023/10/23 02:19:53;;;;;;;226.20;57.27;;;;;;;;;;4976002;28;20211;-45
2023/10/23 02:22:19;;;;;;;228.60;59.58;;;;;;;;;;4975678;28;20881;-45
2023/10/23 02:24:45;;;;;;;229.95;59.90;;;;;;;;;;4975019;28;20205;-46
2023/10/23 02:27:12;;;;;;;224.65;54.55;;;;;;;;;;4975663;28;20176;-46
2023/10/23 02:29:40;;;;;;;226.52;58.53;;;;;;;;;;4976071;28;20167;-46
2023/10/23 02:32:06;;;;;;;227.40;58.13;;;;;;;;;;4976122;28;20216;-47
2023/10/23 02:34:33;;;;;;;231.00;62.60;;;;;;;;;;4975728;28;20201;-45
2023/10/23 02:36:59;;;;;;;226.90;58.40;;;;;;;;;;4975960;28;20173;-45
2023/10/23 02:39:25;;;;;;;225.60;56.70;;;;;;;;;;4976316;28;20183;-46
2023/10/23 02:41:50;;;;;;;228.90;60.13;;;;;;;;;;4975851;28;20953;-46
2023/10/23 02:44:16;;;;;;;225.80;58.73;;;;;;;;;;4975653;28;20443;-47
2023/10/23 02:46:42;;;;;;;224.97;57.20;;;;;;;;;;4976269;28;20448;-46
2023/10/23 02:49:08;;;;;;;227.77;58.90;;;;;;;;;;4975820;28;20417;-46
2023/10/23 02:51:36;;;;;;;224.63;56.13;;;;;;;;;;4975733;28;20895;-45
2023/10/23 02:54:02;;;;;;;230.27;62.75;;;;;;;;;;4975434;28;20776;-45
2023/10/23 02:56:28;;;;;;;230.73;62.83;;;;;;;;;;4975614;28;20232;-45
2023/10/23 02:58:54;;;;;;;229.27;61.17;;;;;;;;;;4975618;28;20681;-45
2023/10/23 03:01:23;;;;;;;226.65;57.25;;;;;;;;;;4975453;28;20456;-46
2023/10/23 03:03:49;;;;;;;227.75;58.08;;;;;;;;;;4975163;28;20642;-46
2023/10/23 03:06:15;;;;;;;228.43;59.53;;;;;;;;;;4975305;28;20649;-46
2023/10/23 03:08:41;;;;;;;226.83;57.73;;;;;;;;;;4975372;28;20181;-45
2023/10/23 03:11:08;;;;;;;228.20;61.92;;;;;;;;;;4975309;28;20770;-46
2023/10/23 03:13:34;;;;;;;227.23;57.47;;;;;;;;;;4975073;28;20172;-46
2023/10/23 03:16:00;;;;;;;223.65;54.28;;;;;;;;;;4974230;28;20689;-45
2023/10/23 03:18:26;;;;;;;226.50;57.78;;;;;;;;;;4974977;28;20252;-45
2023/10/23 03:20:52;;;;;;;229.07;60.23;;;;;;;;;;4975402;28;20185;-46
2023/10/23 03:23:18;;;;;;;223.15;55.90;;;;;;;;;;4974902;28;20408;-46
2023/10/23 03:25:44;;;;;;;226.87;57.93;;;;;;;;;;4975192;28;20189;-46
2023/10/23 03:28:10;;;;;;;224.40;56.10;;;;;;;;;;4975101;28;20402;-45
2023/10/23 03:30:36;;;;;;;225.33;59.10;;;;;;;;;;4975037;28;20512;-46
2023/10/23 03:33:02;;;;;;;229.55;59.20;;;;;;;;;;4974615;28;20409;-46
2023/10/23 03:35:29;;;;;;;226.00;57.55;;;;;;;;;;4974911;28;20200;-46
2023/10/23 03:37:55;;;;;;;226.63;59.08;;;;;;;;;;4974783;28;20721;-45
2023/10/23 03:40:21;;;;;;;224.93;57.37;;;;;;;;;;4975071;28;20179;-46
2023/10/23 03:42:50;;;;;;;232.50;63.23;;;;;;;;;;4974568;28;20881;-46
2023/10/23 03:45:16;;;;;;;228.60;62.00;;;;;;;;;;4974734;28;20426;-46
2023/10/23 03:47:42;;;;;;;226.27;57.67;;;;;;;;;;4974682;28;20182;-47
2023/10/23 03:50:08;;;;;;;224.23;55.57;;;;;;;;;;4974688;28;20686;-46
2023/10/23 03:52:34;;;;;;;226.60;56.13;;;;;;;;;;4974516;28;20394;-45
2023/10/23 03:55:00;;;;;;;223.43;56.73;;;;;;;;;;4974361;28;20657;-45
2023/10/23 03:57:26;;;;;;;223.17;55.60;;;;;;;;;;4974469;28;20540;-45
2023/10/23 03:59:52;;;;;;;223.87;55.20;;;;;;;;;;4974444;28;20394;-46
2023/10/23 04:02:18;;;;;;;226.03;55.47;;;;;;;;;;4974233;28;20397;-47
2023/10/23 04:04:44;;;;;;;222.83;54.70;;;;;;;;;;4974239;28;20426;-45
2023/10/23 04:07:10;;;;;;;225.27;55.20;;;;;;;;;;4974293;28;20428;-46
2023/10/23 04:09:36;;;;;;;226.33;57.00;;;;;;;;;;4974572;28;20413;-45
2023/10/23 04:12:03;;;;;;;225.95;55.17;;;;;;;;;;4974229;28;20520;-46
2023/10/23 04:14:29;;;;;;;224.48;55.00;;;;;;;;;;4973985;28;20190;-46
2023/10/23 04:16:55;;;;;;;225.37;54.83;;;;;;;;;;4974050;28;20220;-45
2023/10/23 04:19:21;;;;;;;225.63;57.13;;;;;;;;;;4974027;28;20481;-46
2023/10/23 04:21:47;;;;;;;227.67;56.63;;;;;;;;;;4973934;28;20397;-46
2023/10/23 04:24:13;;;;;;;226.83;58.00;;;;;;;;;;4973691;28;20476;-46
2023/10/23 04:26:39;;;;;;;225.90;57.10;;;;;;;;;;4974772;28;20946;-47
2023/10/23 04:29:05;;;;;;;227.73;59.17;;;;;;;;;;4977340;28;20260;-46
2023/10/23 04:31:31;;;;;;;226.60;56.97;;;;;;;;;;4973457;28;20428;-46
2023/10/23 04:33:57;;;;;;;226.23;56.37;;;;;;;;;;4973408;28;20456;-47
2023/10/23 04:36:23;;;;;;;224.43;55.20;;;;;;;;;;4973432;28;20421;-46
2023/10/23 04:38:49;;;;;;;224.50;55.20;;;;;;;;;;4973372;28;20464;-47
2023/10/23 04:41:15;;;;;;;228.90;59.67;;;;;;;;;;4973472;28;20170;-47
2023/10/23 04:43:41;;;;;;;228.23;59.90;;;;;;;;;;4973209;28;20425;-46
2023/10/23 04:46:07;;;;;;;226.70;57.37;;;;;;;;;;4973180;28;20435;-46
2023/10/23 04:48:33;;;;;;;225.87;57.60;;;;;;;;;;4973544;28;20904;-46
2023/10/23 04:50:59;;;;;;;224.40;54.20;;;;;;;;;;4973442;28;20917;-45
2023/10/23 04:53:25;;;;;;;226.93;56.95;;;;;;;;;;4973204;28;20413;-46
2023/10/23 04:55:51;;;;;;;224.10;55.37;;;;;;;;;;4973275;28;20271;-46
2023/10/23 04:58:17;;;;;;;226.70;56.60;;;;;;;;;;4973054;28;20465;-46
2023/10/23 05:00:44;;;;;;;226.77;57.83;;;;;;;;;;4972999;28;20401;-46
2023/10/23 05:03:10;;;;;;;227.57;59.30;;;;;;;;;;4972919;28;20412;-47
2023/10/23 05:05:36;;;;;;;225.85;56.25;;;;;;;;;;4972831;28;20198;-46
2023/10/23 05:08:03;;;;;;;227.68;59.25;;;;;;;;;;4973016;28;20606;-46
2023/10/23 05:10:29;;;;;;;226.43;57.25;;;;;;;;;;4972999;28;20556;-46
2023/10/23 05:12:56;;;;;;;227.38;57.15;;;;;;;;;;4972611;28;20605;-46
2023/10/23 05:15:22;;;;;;;224.55;55.55;;;;;;;;;;4972817;28;20462;-47
2023/10/23 05:17:49;;;;;;;226.38;58.47;;;;;;;;;;4973010;28;20301;-46
2023/10/23 05:20:15;;;;;;;227.05;57.58;;;;;;;;;;4972946;28;20201;-46
2023/10/23 05:22:41;;;;;;;225.25;57.17;;;;;;;;;;4972701;28;20185;-46
2023/10/23 05:25:11;;;;;;;223.87;55.77;;;;;;;;;;4972621;28;20248;-46
2023/10/23 05:27:37;;;;;;;226.02;56.63;;;;;;;;;;4972708;28;20441;-47
2023/10/23 05:30:03;;;;;;;224.45;56.08;;;;;;;;;;4972839;28;20177;-46
2023/10/23 05:32:30;;;;;;;223.95;54.85;;;;;;;;;;4972865;28;20240;-45
2023/10/23 05:34:56;;;;;;;227.23;58.50;;;;;;;;;;4972778;28;20207;-46
2023/10/23 05:37:21;;;;;;;226.33;57.93;;;;;;;;;;4977121;28;20209;-46
2023/10/23 05:39:47;;;;;;;224.27;54.80;;;;;;;;;;4973835;28;20437;-46
2023/10/23 05:42:14;;;;;;;224.50;55.83;;;;;;;;;;4976690;28;20783;-47
2023/10/23 05:44:40;;;;;;;223.82;55.75;;;;;;;;;;4976411;28;20437;-46
2023/10/23 05:47:06;;;;;;;224.43;56.47;;;;;;;;;;4976595;28;20221;-45
2023/10/23 05:49:34;;;;;;;224.77;57.22;;;;;;;;;;4976478;28;20483;-46
2023/10/23 05:52:00;;;;;;;226.18;56.40;;;;;;;;;;4976375;28;20174;-46
2023/10/23 05:54:26;;;;;;;228.47;59.83;;;;;;;;;;4975451;28;20212;-47
2023/10/23 05:56:52;;;;;;;225.27;56.20;;;;;;;;;;4975809;28;20405;-47
2023/10/23 05:59:18;;;;;;;224.37;54.97;;;;;;;;;;4975887;28;20507;-45
2023/10/23 06:01:43;;;;;;;228.43;58.27;;;;;;;;;;4975698;28;20416;-46
2023/10/23 06:04:09;;;;;;;222.40;53.03;;;;;;;;;;4975630;28;20428;-46
2023/10/23 06:06:35;;;;;;;226.03;56.50;;;;;;;;;;4975363;28;20440;-46
2023/10/23 06:09:04;;;;;;;224.60;56.00;;;;;;;;;;4975672;28;20570;-46
2023/10/23 06:11:30;;;;;;;227.35;58.13;;;;;;;;;;4975640;28;20421;-45
2023/10/23 06:13:56;;;;;;;227.10;59.40;;;;;;;;;;4975453;28;20263;-46
2023/10/23 06:16:22;;;;;;;223.50;54.38;;;;;;;;;;4975479;28;20173;-46
2023/10/23 06:18:48;;;;;;;228.83;58.63;;;;;;;;;;4975296;28;20635;-45
2023/10/23 06:21:14;;;;;;;226.13;59.00;;;;;;;;;;4974917;28;20428;-45
2023/10/23 06:23:40;;;;;;;223.43;55.60;;;;;;;;;;4968585;28;20417;-45
2023/10/23 06:26:07;;;;;;;226.48;57.50;;;;;;;;;;4973528;28;20440;-46
2023/10/23 06:28:33;;;;;;;226.85;57.58;;;;;;;;;;4971150;28;20209;-45
2023/10/23 06:31:10;;;;;;;224.85;55.13;;;;;;;;;;4973867;28;20561;-46
2023/10/23 06:33:36;;;;;;;228.25;58.15;;;;;;;;;;4973354;28;20719;-46
2023/10/23 06:36:09;;;;;;;229.93;58.03;;;;;;;;;;4973844;28;20208;-45
2023/10/23 06:38:35;;;;;;;225.52;56.95;;;;;;;;;;4973809;28;20697;-46
2023/10/23 06:41:07;;;;;;;229.07;58.63;;;;;;;;;;4974277;28;20638;-45
2023/10/23 06:43:34;;;;;;;228.90;59.75;;;;;;;;;;4974512;28;20274;-46
2023/10/23 06:46:00;;;;;;;226.75;58.78;;;;;;;;;;4976143;28;20197;-45
2023/10/23 06:48:26;;;;;;;228.60;58.97;;;;;;;;;;4975263;28;20221;-46
2023/10/23 06:50:52;;;;;;;227.20;59.17;;;;;;;;;;4975625;28;20635;-45
2023/10/23 06:53:18;;;;;;;227.15;58.35;;;;;;;;;;4975568;28;20409;-46
2023/10/23 06:55:51;;;;;;;227.23;60.55;;;;;;;;;;4975874;28;20244;-45
2023/10/23 06:58:19;;;;;;;224.95;56.45;;;;;;;;;;4975361;28;20199;-45
2023/10/23 07:00:45;;;;;;;227.85;58.15;;;;;;;;;;4967422;28;20169;-46
2023/10/23 07:03:11;;;;;;;225.35;59.70;;;;;;;;;;4975010;28;20724;-46
2023/10/23 07:05:37;;;;;;;227.73;59.67;;;;;;;;;;4975324;28;20190;-46
2023/10/23 07:08:03;;;;;;;222.53;54.83;;;;;;;;;;4975586;28;20233;-45
2023/10/23 07:10:31;;;;;;;225.23;55.72;;;;;;;;;;4975436;28;20451;-45
2023/10/23 07:12:57;;;;;;;230.50;59.92;;;;;;;;;;4975053;28;20182;-46
2023/10/23 07:15:23;;;;;;;226.33;59.57;;;;;;;;;;4975571;28;20207;-46
2023/10/23 07:17:49;;;;;;;224.63;55.20;;;;;;;;;;4975146;28;20480;-46
2023/10/23 07:20:17;;;;;;;225.67;56.60;;;;;;;;;;4975264;28;20821;-45
2023/10/23 07:22:43;;;;;;;229.98;61.38;;;;;;;;;;4974988;28;20404;-45
2023/10/23 07:25:09;;;;;;;228.25;59.53;;;;;;;;;;4974993;28;20197;-46
2023/10/23 07:27:35;;;;;;;237.25;63.30;;;;;;;;;;4973942;28;20181;-47
2023/10/23 07:30:03;;;;;;;228.80;60.90;;;;;;;;;;4977644;28;20170;-46
2023/10/23 07:32:29;;;;;;;230.38;61.53;;;;;;;;;;4974550;28;20233;-45
2023/10/23 07:34:55;;;;;;;224.70;55.47;;;;;;;;;;4974388;28;20622;-45
2023/10/23 07:37:22;;;;;;;225.80;56.37;;;;;;;;;;4974571;28;20245;-46
2023/10/23 07:39:48;;;;;;;227.68;57.85;;;;;;;;;;4974558;28;20462;-46
2023/10/23 07:42:18;;;;;;;227.33;58.43;;;;;;;;;;4974519;28;20706;-46
2023/10/23 07:44:44;;;;;;;229.40;59.95;;;;;;;;;;4974038;28;20524;-46
2023/10/23 07:47:10;;;;;;;227.03;57.57;;;;;;;;;;4974411;28;20299;-45
2023/10/23 07:49:36;;;;;;;228.00;60.23;;;;;;;;;;4974529;28;20406;-46
2023/10/23 07:52:03;;;;;;;228.93;58.33;;;;;;;;;;4974716;28;20487;-46
2023/10/23 07:54:31;;;;;;;225.55;55.17;;;;;;;;;;4974189;28;20427;-46
2023/10/23 07:56:57;;;;;;;230.25;59.75;;;;;;;;;;4974533;28;20218;-46
2023/10/23 07:59:24;;;;;;;227.52;57.22;;;;;;;;;;4974385;28;20211;-46
2023/10/23 08:01:50;;;;;;;228.93;59.08;;;;;;;;;;4974094;28;20174;-46
2023/10/23 08:04:16;;;;;;;229.57;58.50;;;;;;;;;;4973867;28;20693;-46
2023/10/23 08:06:42;;;;;;;229.00;59.10;;;;;;;;;;4974267;28;20183;-46
2023/10/23 08:09:10;;;;;;;229.30;59.70;;;;;;;;;;4974271;28;20583;-46
2023/10/23 08:11:36;;;;;;;229.98;60.78;;;;;;;;;;4974109;28;20430;-46
2023/10/23 08:14:01;;;;;;;231.63;61.80;;;;;;;;;;4973919;28;20646;-46
2023/10/23 08:16:27;;;;;;;232.67;63.53;;;;;;;;;;4974111;28;20411;-46
2023/10/23 08:18:55;;;;;;;233.27;63.53;;;;;;;;;;4974063;28;20476;-46
2023/10/23 08:21:22;;;;;;;230.07;60.53;;;;;;;;;;4974106;28;20479;-46
2023/10/23 08:23:54;;;;;;;230.95;62.42;;;;;;;;;;4973653;28;20169;-46
2023/10/23 08:26:20;;;;;;;233.68;68.15;;;;;;;;;;4973997;28;20172;-46
2023/10/23 08:28:45;;;;;;;233.03;67.07;;;;;;;;;;4974042;28;20577;-47
2023/10/23 08:31:11;;;;;;;231.77;63.07;;;;;;;;;;4973763;28;20408;-47
2023/10/23 08:33:38;;;;;;;235.40;67.00;;;;;;;;;;4973591;28;20404;-46
2023/10/23 08:36:04;;;;;;;232.33;64.37;;;;;;;;;;4973786;28;20424;-46
2023/10/23 08:38:30;;;;;;;232.50;66.60;;;;;;;;;;4973826;28;21028;-45
2023/10/23 08:40:56;;;;;;;233.07;65.10;;;;;;;;;;4973898;28;20400;-46
2023/10/23 08:43:23;;;;;;;229.63;63.13;;;;;;;;;;4973670;28;20894;-46
2023/10/23 08:45:50;;;;;;;230.90;62.10;;;;;;;;;;4973596;28;20419;-47
2023/10/23 08:48:17;;;;;;;231.10;62.50;;;;;;;;;;4973808;28;20467;-46
2023/10/23 08:50:43;;;;;;;232.43;65.33;;;;;;;;;;4973722;28;20483;-46
2023/10/23 08:53:11;;;;;;;232.57;64.43;;;;;;;;;;4973194;28;20902;-46
2023/10/23 08:55:37;;;;;;;233.97;67.00;;;;;;;;;;4973598;28;20848;-46
2023/10/23 08:58:04;;;;;;;234.23;68.47;;;;;;;;;;4973376;28;20467;-46
2023/10/23 09:00:30;;;;;;;237.47;71.63;;;;;;;;;;4973558;28;20496;-46
2023/10/23 09:02:58;;;;;;;244.63;79.40;;;;;;;;;;4980014;28;20969;-46
2023/10/23 09:05:24;;;;;;;237.70;74.37;;;;;;;;;;4992729;28;20945;-47
2023/10/23 09:07:50;;;;;;;240.27;75.67;;;;;;;;;;4992341;28;20433;-46
2023/10/23 09:10:16;;;;;;;241.30;80.70;;;;;;;;;;4992723;28;20503;-47
2023/10/23 09:12:43;;;;;;;241.57;81.83;;;;;;;;;;4992436;28;20497;-48
2023/10/23 09:15:27;;;;;;;244.87;87.47;;;;;;;;;;4991638;28;20439;-46
2023/10/23 09:17:53;;;;;;;247.70;94.50;;;;;;;;;;4992533;28;20982;-46
2023/10/23 09:20:19;;;;;;;244.40;90.60;;;;;;;;;;4992492;28;20405;-46
2023/10/23 09:22:48;;;;;;;248.43;95.20;;;;;;;;;;4992257;28;20881;-46
2023/10/23 09:25:18;;;;;;;247.40;93.10;;;;;;;;;;4992414;28;20923;-46
2023/10/23 09:27:44;;;;;;;247.87;96.37;;;;;;;;;;4992393;28;20404;-47
2023/10/23 09:30:13;;;;;;;247.50;95.63;;;;;;;;;;4992487;28;20790;-47
2023/10/23 09:32:39;;;;;;;246.57;95.60;;;;;;;;;;4977074;28;20413;-46
2023/10/23 09:35:05;;;;;;;245.67;94.53;;;;;;;;;;4972555;28;20765;-47
2023/10/23 09:37:31;;;;;;;245.30;94.57;;;;;;;;;;4972916;28;20460;-47
2023/10/23 09:40:00;;;;;;;246.60;100.63;;;;;;;;;;4973024;28;20539;-47
2023/10/23 09:42:32;;;;;;;245.43;95.20;;;;;;;;;;4972785;28;20411;-48
2023/10/23 09:45:00;;;;;;;250.50;102.53;;;;;;;;;;4972809;28;20463;-46
2023/10/23 09:47:27;;;;;;;250.37;103.33;;;;;;;;;;4972825;28;20486;-47
2023/10/23 09:49:53;;;;;;;243.30;94.50;;;;;;;;;;4972957;28;20495;-47
2023/10/23 09:52:22;;;;;;;245.30;96.93;;;;;;;;;;4966632;28;20496;-48
2023/10/23 09:54:49;;;;;;;245.00;97.97;;;;;;;;;;4960973;28;20449;-47
2023/10/23 09:57:17;;;;;;;252.90;112.37;;;;;;;;;;4953347;29;20417;-47
2023/10/23 09:59:47;;;;;;;246.03;101.83;;;;;;;;;;4953017;29;20469;-46
2023/10/23 10:02:15;;;;;;;249.37;105.50;;;;;;;;;;4953514;29;20406;-46
2023/10/23 10:04:44;;;;;;;254.67;115.77;;;;;;;;;;4952261;28;20449;-47
2023/10/23 10:07:21;;;;;;;246.10;102.77;;;;;;;;;;4953294;29;20512;-47
2023/10/23 10:09:47;;;;;;;245.07;99.47;;;;;;;;;;4953545;29;21122;-47
2023/10/23 10:12:13;;;;;;;245.67;101.80;;;;;;;;;;4953456;29;20402;-46
2023/10/23 10:14:40;;;;;;;250.03;109.57;;;;;;;;;;4953010;29;20432;-46
2023/10/23 10:17:07;;;;;;;244.20;100.93;;;;;;;;;;4953410;29;20916;-46
2023/10/23 10:19:33;;;;;;;247.60;103.30;;;;;;;;;;4953375;29;20402;-47
2023/10/23 10:22:14;;;;;;;247.47;102.47;;;;;;;;;;4953414;29;20412;-47
2023/10/23 10:24:40;;;;;;;250.27;105.30;;;;;;;;;;4953239;29;20928;-46
2023/10/23 10:27:06;;;;;;;248.47;101.10;;;;;;;;;;4956905;28;20409;-46
2023/10/23 10:29:32;;;;;;;248.90;103.13;;;;;;;;;;4956929;29;20408;-46
2023/10/23 10:32:05;;;;;;;249.57;104.77;;;;;;;;;;4972179;28;20427;-46
2023/10/23 10:34:35;;;;;;;245.43;96.33;;;;;;;;;;4975973;28;20426;-46
2023/10/23 10:37:01;;;;;;;247.27;100.63;;;;;;;;;;4976148;28;20401;-46
2023/10/23 10:39:46;;;;;;;246.70;96.63;;;;;;;;;;4976126;28;20548;-46
2023/10/23 10:42:16;;;;;;;250.87;105.43;;;;;;;;;;4975922;28;20398;-46
2023/10/23 10:44:55;;;;;;;251.73;103.73;;;;;;;;;;4968333;28;20950;-46
2023/10/23 10:47:21;;;;;;;255.83;104.37;;;;;;;;;;4968805;28;20424;-47
2023/10/23 10:49:48;;;;;;;246.57;93.17;;;;;;;;;;4971494;28;20437;-46
2023/10/23 10:52:36;;;;;;;245.00;94.47;;;;;;;;;;4972702;28;20785;-47
2023/10/23 10:55:02;;;;;;;256.23;108.13;;;;;;;;;;4970583;28;20932;-48
2023/10/23 10:57:28;;;;;;;258.47;107.37;;;;;;;;;;4972303;28;20569;-47
2023/10/23 10:59:55;;;;;;;245.30;95.73;;;;;;;;;;4973978;28;20409;-48
2023/10/23 11:02:22;;;;;;;246.00;95.67;;;;;;;;;;4973963;28;20425;-46
2023/10/23 11:04:48;;;;;;;253.67;105.40;;;;;;;;;;4973451;28;20444;-46
2023/10/23 11:07:14;;;;;;;248.63;97.40;;;;;;;;;;4973248;28;22404;-46
2023/10/23 11:09:41;;;;;;;256.17;108.03;;;;;;;;;;4977068;28;20441;-46
2023/10/23 11:12:07;;;;;;;257.73;112.03;;;;;;;;;;4972000;28;20436;-48
2023/10/23 11:14:33;;;;;;;248.97;100.83;;;;;;;;;;4965551;28;20849;-47
2023/10/23 11:16:59;;;;;;;252.77;103.40;;;;;;;;;;4973634;28;20484;-46
2023/10/23 11:19:25;;;;;;;251.37;99.37;;;;;;;;;;4973857;28;20514;-47
2023/10/23 11:22:05;;;;;;;255.17;103.00;;;;;;;;;;4973800;28;20936;-47
2023/10/23 11:24:31;;;;;;;252.67;104.87;;;;;;;;;;4971613;28;20448;-47
2023/10/23 11:26:57;;;;;;;251.43;101.57;;;;;;;;;;4973762;28;20405;-48
2023/10/23 11:29:23;;;;;;;245.60;95.57;;;;;;;;;;4968777;28;20447;-47
2023/10/23 11:31:50;;;;;;;245.57;95.10;;;;;;;;;;4967814;28;20475;-47
2023/10/23 11:34:16;;;;;;;247.17;98.93;;;;;;;;;;4971831;28;20461;-46
2023/10/23 11:36:42;;;;;;;249.87;100.50;;;;;;;;;;4976267;28;20436;-46
2023/10/23 11:39:10;;;;;;;247.10;97.67;;;;;;;;;;4978699;28;20468;-47
2023/10/23 11:41:36;;;;;;;248.47;99.33;;;;;;;;;;4973464;28;20512;-48
2023/10/23 11:44:03;;;;;;;247.93;95.30;;;;;;;;;;4974642;28;20483;-45
2023/10/23 11:46:29;;;;;;;248.87;96.83;;;;;;;;;;4975009;28;20484;-46
2023/10/23 11:48:55;;;;;;;252.10;99.23;;;;;;;;;;4974661;28;20412;-45
2023/10/23 11:51:22;;;;;;;247.77;95.23;;;;;;;;;;4974746;28;20902;-46
2023/10/23 11:53:48;;;;;;;253.57;103.83;;;;;;;;;;4974505;28;20413;-46
2023/10/23 11:56:14;;;;;;;252.30;99.53;;;;;;;;;;4974675;28;20916;-46
2023/10/23 11:58:40;;;;;;;244.00;86.17;;;;;;;;;;4974585;28;20547;-45
2023/10/23 12:01:06;;;;;;;247.10;94.70;;;;;;;;;;4974525;28;21217;-46
2023/10/23 12:03:32;;;;;;;245.37;90.93;;;;;;;;;;4974405;28;20473;-45
2023/10/23 12:05:58;;;;;;;250.00;95.20;;;;;;;;;;4974357;28;20440;-46
2023/10/23 12:08:24;;;;;;;251.33;98.23;;;;;;;;;;4974644;28;20440;-46
2023/10/23 12:10:50;;;;;;;250.03;97.03;;;;;;;;;;4974540;28;20532;-46
2023/10/23 12:13:16;;;;;;;247.83;91.00;;;;;;;;;;4974135;28;20404;-46
2023/10/23 12:15:42;;;;;;;245.40;88.30;;;;;;;;;;4974308;28;20432;-45
2023/10/23 12:18:08;;;;;;;246.30;90.37;;;;;;;;;;4974332;28;21026;-46
2023/10/23 12:20:34;;;;;;;248.50;92.93;;;;;;;;;;4974394;28;20928;-46
2023/10/23 12:23:00;;;;;;;254.93;100.03;;;;;;;;;;4973966;28;20455;-47
2023/10/23 12:25:26;;;;;;;246.47;90.57;;;;;;;;;;4974132;28;20417;-47
2023/10/23 12:27:52;;;;;;;248.77;93.50;;;;;;;;;;4974064;28;20415;-45
2023/10/23 12:30:18;;;;;;;250.87;97.07;;;;;;;;;;4974128;28;20484;-46
2023/10/23 12:32:44;;;;;;;248.27;91.20;;;;;;;;;;4973888;28;20474;-45
2023/10/23 12:35:11;;;;;;;245.03;87.23;;;;;;;;;;4973956;28;20465;-46
2023/10/23 12:37:39;;;;;;;246.77;89.97;;;;;;;;;;4974032;28;20454;-46
2023/10/23 12:40:08;;;;;;;246.40;87.07;;;;;;;;;;4973945;28;20490;-46
2023/10/23 12:42:34;;;;;;;246.43;86.47;;;;;;;;;;4973956;28;20399;-46
2023/10/23 12:45:00;;;;;;;244.80;87.67;;;;;;;;;;4972249;28;20522;-46
2023/10/23 12:47:26;;;;;;;243.30;87.07;;;;;;;;;;4973853;28;20407;-46
2023/10/23 12:49:52;;;;;;;246.17;88.87;;;;;;;;;;4973689;28;20526;-47
2023/10/23 12:52:19;;;;;;;245.50;87.97;;;;;;;;;;4973653;28;20423;-47
2023/10/23 12:54:45;;;;;;;242.17;82.07;;;;;;;;;;4973325;28;20909;-46
2023/10/23 12:57:11;;;;;;;246.27;88.60;;;;;;;;;;4973464;28;20407;-46
2023/10/23 12:59:37;;;;;;;245.23;88.87;;;;;;;;;;4973810;28;20915;-45
2023/10/23 13:02:03;;;;;;;245.40;88.17;;;;;;;;;;4973444;28;20418;-45
2023/10/23 13:04:29;;;;;;;239.93;78.57;;;;;;;;;;4973321;28;20467;-46
2023/10/23 13:06:55;;;;;;;243.73;84.27;;;;;;;;;;4973457;28;20460;-46
2023/10/23 13:09:22;;;;;;;241.03;80.37;;;;;;;;;;4973467;28;20970;-45
2023/10/23 13:11:48;;;;;;;240.63;78.73;;;;;;;;;;4973318;28;20926;-45
2023/10/23 13:14:14;;;;;;;245.57;88.93;;;;;;;;;;4973128;28;20429;-46
2023/10/23 13:16:40;;;;;;;243.77;87.43;;;;;;;;;;4973455;28;20441;-45
2023/10/23 13:19:07;;;;;;;238.27;76.23;;;;;;;;;;4973259;28;20544;-45
2023/10/23 13:21:33;;;;;;;240.47;78.50;;;;;;;;;;4973322;28;20464;-46
2023/10/23 13:23:59;;;;;;;238.67;76.07;;;;;;;;;;4972888;28;20402;-46
2023/10/23 13:26:25;;;;;;;240.47;78.93;;;;;;;;;;4973073;28;20404;-47
2023/10/23 13:28:51;;;;;;;242.63;83.30;;;;;;;;;;4973473;28;20938;-45
2023/10/23 13:31:17;;;;;;;243.23;82.37;;;;;;;;;;4973082;28;20170;-45
2023/10/23 13:33:43;;;;;;;241.50;80.77;;;;;;;;;;4972864;28;20438;-46
2023/10/23 13:36:09;;;;;;;242.10;84.77;;;;;;;;;;4973024;28;20418;-45
2023/10/23 13:38:35;;;;;;;243.37;85.33;;;;;;;;;;4973236;28;20493;-45
2023/10/23 13:41:03;;;;;;;240.87;81.77;;;;;;;;;;4973025;28;20406;-46
2023/10/23 13:43:29;;;;;;;239.55;79.93;;;;;;;;;;4972865;28;20397;-47
2023/10/23 13:45:55;;;;;;;243.67;84.23;;;;;;;;;;4973093;28;20186;-47
2023/10/23 13:48:21;;;;;;;240.60;81.20;;;;;;;;;;4973043;28;20513;-45
2023/10/23 13:50:49;;;;;;;242.93;84.23;;;;;;;;;;4973095;28;20874;-47
2023/10/23 13:53:18;;;;;;;241.82;80.78;;;;;;;;;;4972670;28;20407;-46
2023/10/23 13:55:45;;;;;;;239.00;81.53;;;;;;;;;;4972985;28;20183;-45
2023/10/23 13:58:11;;;;;;;241.53;81.00;;;;;;;;;;4972848;28;20467;-46
2023/10/23 14:00:37;;;;;;;242.77;83.03;;;;;;;;;;4973825;28;20398;-46